Time;durP1;ratioP1;P1;durP2;ratioP2;P2;SDS_P1;SDS_P2;PMS_P1;PMS_P2;Temp;Humidity;BMP_temperature;BMP_pressure;BME280_temperature;BME280_humidity;BME280_pressure;Samples;Min_cycle;Max_cycle;Signal;HPM_P1;HPM_P2
2022/03/30 00:01:51;;;;;;;29.37;10.97;;;;;;;;;;5024075;28;20225;-65
2022/03/30 00:04:17;;;;;;;28.97;11.47;;;;;;;;;;5017999;28;20252;-66
2022/03/30 00:06:43;;;;;;;28.40;11.67;;;;;;;;;;5018930;28;20194;-65
2022/03/30 00:09:08;;;;;;;25.87;10.30;;;;;;;;;;5017162;28;20614;-66
2022/03/30 00:11:34;;;;;;;30.13;11.30;;;;;;;;;;5020557;28;20187;-67
2022/03/30 00:13:59;;;;;;;26.10;10.13;;;;;;;;;;5026207;28;20666;-65
2022/03/30 00:16:24;;;;;;;30.07;11.30;;;;;;;;;;5012278;28;20208;-66
2022/03/30 00:18:50;;;;;;;26.70;11.07;;;;;;;;;;5013854;28;20239;-66
2022/03/30 00:21:16;;;;;;;24.87;9.87;;;;;;;;;;5014434;28;20183;-66
2022/03/30 00:23:41;;;;;;;34.63;10.60;;;;;;;;;;5015024;28;20178;-66
2022/03/30 00:26:07;;;;;;;28.83;11.57;;;;;;;;;;5014864;28;20206;-66
2022/03/30 00:28:33;;;;;;;30.47;11.37;;;;;;;;;;5023980;28;20182;-66
2022/03/30 00:30:58;;;;;;;34.00;11.27;;;;;;;;;;5017976;28;20566;-66
2022/03/30 00:33:24;;;;;;;25.13;11.10;;;;;;;;;;5026943;28;20193;-66
2022/03/30 00:35:49;;;;;;;28.10;10.10;;;;;;;;;;5026557;28;20206;-66
2022/03/30 00:38:15;;;;;;;29.20;10.53;;;;;;;;;;5023550;28;20236;-66
2022/03/30 00:40:40;;;;;;;27.57;10.50;;;;;;;;;;5017834;28;20245;-66
2022/03/30 00:43:06;;;;;;;23.80;10.47;;;;;;;;;;5023123;28;20226;-66
2022/03/30 00:45:31;;;;;;;24.47;9.93;;;;;;;;;;5021285;28;20253;-66
2022/03/30 00:47:56;;;;;;;25.97;10.93;;;;;;;;;;5015785;28;20190;-66
2022/03/30 00:50:23;;;;;;;35.37;11.13;;;;;;;;;;5013929;28;20194;-66
2022/03/30 00:52:50;;;;;;;26.83;10.50;;;;;;;;;;5019812;28;20197;-66
2022/03/30 00:55:17;;;;;;;26.70;10.17;;;;;;;;;;5014640;28;20206;-66
2022/03/30 00:57:43;;;;;;;24.83;10.30;;;;;;;;;;5017739;28;20182;-66
2022/03/30 01:00:14;;;;;;;25.10;11.07;;;;;;;;;;5014122;28;20186;-66
2022/03/30 01:02:43;;;;;;;36.70;10.23;;;;;;;;;;5014485;28;20182;-66
2022/03/30 01:05:09;;;;;;;30.67;10.60;;;;;;;;;;5024351;28;20268;-67
2022/03/30 01:07:34;;;;;;;30.90;10.87;;;;;;;;;;5023825;28;20182;-67
2022/03/30 01:09:59;;;;;;;31.07;10.83;;;;;;;;;;5017881;28;20270;-66
2022/03/30 01:12:26;;;;;;;29.23;11.13;;;;;;;;;;5014640;28;20432;-66
2022/03/30 01:14:52;;;;;;;30.63;11.07;;;;;;;;;;5018265;28;20675;-67
2022/03/30 01:17:18;;;;;;;31.67;11.60;;;;;;;;;;5014132;28;20249;-66
2022/03/30 01:19:43;;;;;;;26.50;10.67;;;;;;;;;;5019599;28;20215;-66
2022/03/30 01:22:09;;;;;;;27.63;11.43;;;;;;;;;;5013161;28;20178;-66
2022/03/30 01:24:35;;;;;;;26.03;11.17;;;;;;;;;;5013232;28;20185;-66
2022/03/30 01:27:01;;;;;;;27.00;11.13;;;;;;;;;;5017957;28;20222;-66
2022/03/30 01:32:25;;;;;;;28.37;9.87;;;;;;;;;;5020157;28;20647;-66
2022/03/30 01:34:58;;;;;;;31.67;10.67;;;;;;;;;;5024560;28;20441;-66
2022/03/30 01:37:26;;;;;;;35.97;10.73;;;;;;;;;;5020488;28;20236;-66
2022/03/30 01:39:52;;;;;;;30.30;10.73;;;;;;;;;;5018788;28;20190;-66
2022/03/30 01:42:17;;;;;;;32.03;11.60;;;;;;;;;;5016289;28;20187;-66
2022/03/30 01:44:44;;;;;;;29.00;10.63;;;;;;;;;;5017991;28;21368;-67
2022/03/30 01:47:10;;;;;;;29.13;11.07;;;;;;;;;;5010905;28;20186;-66
2022/03/30 01:49:36;;;;;;;26.97;10.50;;;;;;;;;;5019467;28;20179;-66
2022/03/30 01:52:02;;;;;;;28.73;10.77;;;;;;;;;;5019463;28;20182;-66
2022/03/30 01:54:33;;;;;;;28.50;10.63;;;;;;;;;;5017653;28;20275;-66
2022/03/30 01:56:59;;;;;;;28.30;10.47;;;;;;;;;;5013165;28;20237;-66
2022/03/30 01:59:25;;;;;;;34.43;11.37;;;;;;;;;;5020989;28;20495;-67
2022/03/30 02:01:52;;;;;;;33.40;11.53;;;;;;;;;;5009532;28;20649;-66
2022/03/30 02:04:17;;;;;;;27.57;10.73;;;;;;;;;;5012032;28;20221;-66
2022/03/30 02:06:43;;;;;;;31.87;11.40;;;;;;;;;;5022314;28;20665;-67
2022/03/30 02:09:08;;;;;;;25.30;10.17;;;;;;;;;;5016532;28;20186;-67
2022/03/30 02:11:34;;;;;;;30.93;10.83;;;;;;;;;;5017676;28;20196;-69
2022/03/30 02:14:00;;;;;;;30.27;10.80;;;;;;;;;;5016425;28;20225;-66
2022/03/30 02:16:26;;;;;;;24.77;10.70;;;;;;;;;;5015405;28;20202;-66
2022/03/30 02:18:52;;;;;;;28.50;10.37;;;;;;;;;;5019346;28;20186;-67
2022/03/30 02:21:18;;;;;;;32.00;10.93;;;;;;;;;;5013620;28;20273;-66
2022/03/30 02:23:47;;;;;;;29.10;10.73;;;;;;;;;;5024100;28;20194;-67
2022/03/30 02:26:16;;;;;;;38.13;11.40;;;;;;;;;;5017992;28;20174;-66
2022/03/30 02:28:43;;;;;;;28.03;9.00;;;;;;;;;;5017352;28;20182;-66
2022/03/30 02:31:09;;;;;;;30.43;10.43;;;;;;;;;;5009109;28;20201;-66
2022/03/30 02:33:34;;;;;;;29.77;10.80;;;;;;;;;;5021617;28;20227;-66
2022/03/30 02:36:00;;;;;;;30.20;12.13;;;;;;;;;;5017835;28;20210;-67
2022/03/30 02:38:25;;;;;;;29.80;11.37;;;;;;;;;;5018710;28;20198;-66
2022/03/30 02:40:50;;;;;;;30.47;10.60;;;;;;;;;;5006821;28;20203;-66
2022/03/30 02:43:19;;;;;;;31.27;12.50;;;;;;;;;;5012702;28;20649;-67
2022/03/30 02:45:45;;;;;;;31.97;11.57;;;;;;;;;;5024469;28;20182;-67
2022/03/30 02:48:20;;;;;;;33.43;11.17;;;;;;;;;;5016731;28;20415;-66
2022/03/30 02:50:47;;;;;;;28.63;12.20;;;;;;;;;;5010334;28;20213;-66
2022/03/30 02:53:13;;;;;;;32.23;11.80;;;;;;;;;;5015786;28;20595;-66
2022/03/30 02:55:38;;;;;;;30.93;11.87;;;;;;;;;;5016244;28;20294;-66
2022/03/30 02:58:06;;;;;;;30.87;11.23;;;;;;;;;;5027014;28;20246;-67
2022/03/30 03:00:32;;;;;;;36.50;10.83;;;;;;;;;;5026608;28;20186;-66
2022/03/30 03:03:00;;;;;;;34.73;12.37;;;;;;;;;;5029117;28;20220;-66
2022/03/30 03:05:31;;;;;;;28.40;11.10;;;;;;;;;;5021789;28;20214;-66
2022/03/30 03:07:57;;;;;;;28.00;11.27;;;;;;;;;;5021739;28;20383;-66
2022/03/30 03:10:23;;;;;;;33.37;11.10;;;;;;;;;;5022903;28;20190;-66
2022/03/30 03:12:48;;;;;;;33.07;10.93;;;;;;;;;;5023092;28;20193;-67
2022/03/30 03:15:13;;;;;;;32.63;10.97;;;;;;;;;;5022568;28;20214;-66
2022/03/30 03:17:39;;;;;;;33.40;12.17;;;;;;;;;;5013307;28;20182;-66
2022/03/30 03:20:05;;;;;;;34.77;11.03;;;;;;;;;;5025525;28;20186;-66
2022/03/30 03:22:31;;;;;;;29.93;11.20;;;;;;;;;;5017414;28;20253;-65
2022/03/30 03:24:56;;;;;;;31.33;11.53;;;;;;;;;;5029037;28;20547;-65
2022/03/30 03:27:21;;;;;;;34.07;11.60;;;;;;;;;;5025309;28;20183;-65
2022/03/30 03:29:47;;;;;;;28.40;11.27;;;;;;;;;;5026121;28;20642;-66
2022/03/30 03:32:12;;;;;;;28.67;11.07;;;;;;;;;;5022935;28;20199;-66
2022/03/30 03:34:37;;;;;;;37.33;11.97;;;;;;;;;;5028959;28;20247;-66
2022/03/30 03:37:03;;;;;;;30.83;10.83;;;;;;;;;;5023064;28;20548;-66
2022/03/30 03:39:29;;;;;;;29.00;10.70;;;;;;;;;;5027501;28;20198;-66
2022/03/30 03:41:54;;;;;;;28.53;10.33;;;;;;;;;;5021916;28;20550;-66
2022/03/30 03:44:19;;;;;;;35.27;11.27;;;;;;;;;;5027496;28;20184;-66
2022/03/30 03:46:45;;;;;;;32.70;12.37;;;;;;;;;;5024489;28;20507;-65
2022/03/30 03:49:10;;;;;;;30.17;11.77;;;;;;;;;;5022834;28;20190;-65
2022/03/30 03:51:35;;;;;;;39.20;11.23;;;;;;;;;;5025236;28;20221;-66
2022/03/30 03:54:01;;;;;;;29.47;11.23;;;;;;;;;;5024704;28;20186;-65
2022/03/30 03:56:26;;;;;;;37.20;12.17;;;;;;;;;;5025540;28;20221;-66
2022/03/30 03:58:52;;;;;;;31.00;11.87;;;;;;;;;;5025092;28;20188;-65
2022/03/30 04:01:17;;;;;;;35.03;10.73;;;;;;;;;;5023355;28;20182;-66
2022/03/30 04:03:43;;;;;;;29.33;11.37;;;;;;;;;;5023068;28;20217;-66
2022/03/30 04:06:08;;;;;;;34.27;11.63;;;;;;;;;;5020424;28;20622;-66
2022/03/30 04:08:34;;;;;;;29.97;10.40;;;;;;;;;;5026560;28;20759;-66
2022/03/30 04:11:00;;;;;;;32.97;11.67;;;;;;;;;;5022401;28;20187;-66
2022/03/30 04:13:25;;;;;;;28.07;10.70;;;;;;;;;;5023686;28;20661;-66
2022/03/30 04:15:51;;;;;;;28.97;10.73;;;;;;;;;;5026992;28;20260;-66
2022/03/30 04:18:16;;;;;;;26.07;10.73;;;;;;;;;;5027036;28;20251;-66
2022/03/30 04:20:43;;;;;;;37.40;12.23;;;;;;;;;;5027091;28;20178;-66
2022/03/30 04:23:09;;;;;;;30.73;11.27;;;;;;;;;;5024251;28;20662;-66
2022/03/30 04:25:35;;;;;;;33.97;11.13;;;;;;;;;;5027371;28;20185;-66
2022/03/30 04:28:00;;;;;;;32.70;10.43;;;;;;;;;;5026280;28;20193;-66
2022/03/30 04:30:25;;;;;;;31.30;11.10;;;;;;;;;;5022730;28;20198;-66
2022/03/30 04:32:51;;;;;;;36.93;12.20;;;;;;;;;;5025275;28;20193;-66
2022/03/30 04:35:18;;;;;;;30.67;11.03;;;;;;;;;;5025217;28;20245;-65
2022/03/30 04:37:44;;;;;;;28.20;11.87;;;;;;;;;;5025084;28;20221;-65
2022/03/30 04:40:10;;;;;;;35.60;12.13;;;;;;;;;;5023116;28;20634;-67
2022/03/30 04:42:35;;;;;;;34.37;11.07;;;;;;;;;;5025539;28;20182;-66
2022/03/30 04:45:01;;;;;;;39.87;15.03;;;;;;;;;;5022418;28;20189;-66
2022/03/30 04:47:26;;;;;;;28.80;11.77;;;;;;;;;;5026586;28;20507;-66
2022/03/30 04:49:52;;;;;;;32.93;11.43;;;;;;;;;;5024542;28;20281;-66
2022/03/30 04:52:18;;;;;;;28.80;11.17;;;;;;;;;;5023931;28;20214;-66
2022/03/30 04:54:44;;;;;;;40.03;12.43;;;;;;;;;;5023632;28;20266;-66
2022/03/30 04:57:09;;;;;;;40.43;12.23;;;;;;;;;;5023996;28;20694;-66
2022/03/30 04:59:34;;;;;;;30.37;10.80;;;;;;;;;;5018078;28;20269;-66
2022/03/30 05:02:00;;;;;;;27.13;10.30;;;;;;;;;;5023224;28;20201;-66
2022/03/30 05:04:25;;;;;;;32.93;11.20;;;;;;;;;;5024223;28;20261;-66
2022/03/30 05:06:50;;;;;;;32.13;11.10;;;;;;;;;;5022419;28;20319;-66
2022/03/30 05:09:16;;;;;;;35.87;12.37;;;;;;;;;;5023107;28;20590;-66
2022/03/30 05:11:41;;;;;;;35.60;12.63;;;;;;;;;;5021285;28;20607;-66
2022/03/30 05:14:07;;;;;;;37.50;12.63;;;;;;;;;;5023076;28;20539;-66
2022/03/30 05:16:33;;;;;;;34.33;13.10;;;;;;;;;;5023677;28;20222;-66
2022/03/30 05:19:00;;;;;;;34.27;12.07;;;;;;;;;;5025840;28;20183;-66
2022/03/30 05:21:25;;;;;;;34.57;12.70;;;;;;;;;;5017048;28;20679;-66
2022/03/30 05:23:51;;;;;;;33.23;12.87;;;;;;;;;;5027924;28;20182;-66
2022/03/30 05:26:16;;;;;;;29.63;12.17;;;;;;;;;;5025245;28;20685;-67
2022/03/30 05:28:42;;;;;;;39.80;12.80;;;;;;;;;;5023349;28;20305;-66
2022/03/30 05:31:07;;;;;;;34.20;12.77;;;;;;;;;;5024601;28;20209;-66
2022/03/30 05:33:33;;;;;;;32.43;13.70;;;;;;;;;;5023741;28;20189;-66
2022/03/30 05:35:58;;;;;;;39.40;13.70;;;;;;;;;;5024600;28;20218;-67
2022/03/30 05:38:24;;;;;;;38.40;13.43;;;;;;;;;;5020809;28;20186;-66
2022/03/30 05:40:50;;;;;;;32.20;11.20;;;;;;;;;;5022000;28;20190;-67
2022/03/30 05:43:16;;;;;;;36.67;13.13;;;;;;;;;;5021147;28;20649;-67
2022/03/30 05:45:42;;;;;;;37.27;12.37;;;;;;;;;;5023099;28;20243;-67
2022/03/30 05:48:08;;;;;;;34.80;12.47;;;;;;;;;;5020945;28;20210;-65
2022/03/30 05:50:33;;;;;;;33.97;13.20;;;;;;;;;;5020979;28;20193;-66
2022/03/30 05:52:59;;;;;;;34.47;13.50;;;;;;;;;;5021007;28;20185;-66
2022/03/30 05:55:24;;;;;;;33.77;12.70;;;;;;;;;;5024765;28;20702;-67
2022/03/30 05:57:49;;;;;;;37.57;13.17;;;;;;;;;;5026055;28;20280;-66
2022/03/30 06:00:15;;;;;;;31.87;13.50;;;;;;;;;;5016022;28;20265;-66
2022/03/30 06:02:40;;;;;;;36.73;11.80;;;;;;;;;;5017150;28;20264;-66
2022/03/30 06:05:06;;;;;;;33.27;13.47;;;;;;;;;;5023758;28;20258;-66
2022/03/30 06:07:31;;;;;;;35.70;13.50;;;;;;;;;;5023503;28;20512;-65
2022/03/30 06:09:57;;;;;;;40.07;13.70;;;;;;;;;;5024336;28;20185;-66
2022/03/30 06:12:25;;;;;;;39.30;14.27;;;;;;;;;;5022030;28;20288;-65
2022/03/30 06:14:51;;;;;;;35.53;14.23;;;;;;;;;;5024276;28;20277;-65
2022/03/30 06:17:18;;;;;;;38.30;14.60;;;;;;;;;;5021357;28;20260;-65
2022/03/30 06:19:45;;;;;;;35.70;14.50;;;;;;;;;;5021132;28;20285;-65
2022/03/30 06:22:11;;;;;;;37.17;15.73;;;;;;;;;;5018972;28;20208;-65
2022/03/30 06:24:38;;;;;;;41.10;15.77;;;;;;;;;;5021466;28;22208;-67
2022/03/30 06:27:07;;;;;;;37.80;15.63;;;;;;;;;;5021761;28;20189;-68
2022/03/30 06:29:33;;;;;;;37.60;15.77;;;;;;;;;;5019614;28;20509;-66
2022/03/30 06:31:59;;;;;;;41.00;15.57;;;;;;;;;;5019102;28;20280;-66
2022/03/30 06:34:25;;;;;;;31.53;15.17;;;;;;;;;;5021555;28;20277;-67
2022/03/30 06:36:50;;;;;;;36.30;15.33;;;;;;;;;;5020489;28;20211;-66
2022/03/30 06:39:16;;;;;;;38.77;15.30;;;;;;;;;;5024137;28;20240;-66
2022/03/30 06:41:42;;;;;;;34.60;15.03;;;;;;;;;;5021516;28;20225;-66
2022/03/30 06:44:08;;;;;;;38.67;15.50;;;;;;;;;;5024747;28;20284;-67
2022/03/30 06:46:38;;;;;;;33.10;15.30;;;;;;;;;;5016818;28;20280;-66
2022/03/30 06:49:07;;;;;;;35.40;14.07;;;;;;;;;;5023782;28;20192;-66
2022/03/30 06:51:33;;;;;;;43.80;15.97;;;;;;;;;;5021358;28;20174;-66
2022/03/30 06:53:59;;;;;;;33.23;13.63;;;;;;;;;;5014034;28;20197;-66
2022/03/30 06:56:24;;;;;;;39.87;13.90;;;;;;;;;;5021373;28;20186;-66
2022/03/30 06:58:50;;;;;;;33.40;13.50;;;;;;;;;;5011140;28;20477;-66
2022/03/30 07:01:16;;;;;;;35.53;13.67;;;;;;;;;;5023115;28;20658;-66
2022/03/30 07:03:41;;;;;;;37.97;14.80;;;;;;;;;;5009153;28;20499;-66
2022/03/30 07:06:07;;;;;;;38.60;14.43;;;;;;;;;;5023687;28;20652;-67
2022/03/30 07:11:17;;;;;;;34.57;13.77;;;;;;;;;;5023066;28;20281;-67
2022/03/30 07:13:43;;;;;;;36.83;15.20;;;;;;;;;;5014427;28;20256;-67
2022/03/30 07:16:08;;;;;;;31.10;14.43;;;;;;;;;;5018433;28;20724;-67
2022/03/30 07:18:34;;;;;;;37.80;14.37;;;;;;;;;;5014241;28;20557;-67
2022/03/30 07:20:59;;;;;;;34.83;14.47;;;;;;;;;;5018955;28;20191;-67
2022/03/30 07:23:24;;;;;;;34.07;13.93;;;;;;;;;;5011015;28;20182;-65
2022/03/30 07:25:50;;;;;;;33.20;13.40;;;;;;;;;;5023879;28;20182;-66
2022/03/30 07:28:16;;;;;;;36.50;13.90;;;;;;;;;;5013448;28;20194;-66
2022/03/30 07:30:43;;;;;;;29.90;13.63;;;;;;;;;;5025458;28;20207;-65
2022/03/30 07:33:09;;;;;;;27.93;13.13;;;;;;;;;;5015438;28;20273;-66
2022/03/30 07:35:35;;;;;;;36.30;14.27;;;;;;;;;;5025244;28;20663;-66
2022/03/30 07:38:01;;;;;;;30.57;13.47;;;;;;;;;;5023638;28;20221;-66
2022/03/30 07:40:29;;;;;;;32.23;13.60;;;;;;;;;;5022626;28;20225;-66
2022/03/30 07:42:55;;;;;;;35.87;14.13;;;;;;;;;;5019474;28;20259;-66
2022/03/30 07:45:21;;;;;;;29.63;13.73;;;;;;;;;;5027540;28;20264;-66
2022/03/30 07:47:46;;;;;;;32.33;13.80;;;;;;;;;;5026406;28;20281;-67
2022/03/30 07:50:13;;;;;;;36.17;14.47;;;;;;;;;;5029094;28;20289;-66
2022/03/30 07:52:39;;;;;;;38.37;14.80;;;;;;;;;;5020504;28;20657;-66
2022/03/30 07:55:06;;;;;;;36.77;14.63;;;;;;;;;;5028761;28;20178;-66
2022/03/30 07:57:31;;;;;;;43.37;14.63;;;;;;;;;;5024586;28;20314;-66
2022/03/30 07:59:58;;;;;;;41.50;15.80;;;;;;;;;;5028645;28;20182;-66
2022/03/30 08:02:25;;;;;;;37.03;15.43;;;;;;;;;;5018733;28;20271;-67
2022/03/30 08:04:51;;;;;;;45.90;16.00;;;;;;;;;;5016504;28;20193;-66
2022/03/30 08:07:18;;;;;;;43.17;15.57;;;;;;;;;;5027976;28;20178;-66
2022/03/30 08:09:43;;;;;;;39.60;15.93;;;;;;;;;;5028983;28;20178;-67
2022/03/30 08:12:11;;;;;;;32.03;14.60;;;;;;;;;;5017399;28;20256;-67
2022/03/30 08:14:36;;;;;;;23.53;11.17;;;;;;;;;;5022054;28;20634;-67
2022/03/30 08:17:02;;;;;;;24.20;10.50;;;;;;;;;;5022801;28;20205;-66
2022/03/30 08:19:27;;;;;;;27.00;11.67;;;;;;;;;;5023726;28;20661;-66
2022/03/30 08:24:39;;;;;;;25.57;10.83;;;;;;;;;;5020599;28;20682;-67
2022/03/30 08:27:04;;;;;;;22.23;10.60;;;;;;;;;;5024262;28;20182;-67
2022/03/30 08:29:30;;;;;;;24.27;10.87;;;;;;;;;;5015231;28;20270;-66
2022/03/30 08:31:55;;;;;;;25.70;10.50;;;;;;;;;;5024472;28;20213;-66
2022/03/30 08:34:20;;;;;;;28.73;10.73;;;;;;;;;;5020258;28;20269;-66
2022/03/30 08:36:46;;;;;;;23.80;10.57;;;;;;;;;;5023368;28;20643;-67
2022/03/30 08:39:12;;;;;;;23.45;12.27;;;;;;;;;;5021351;28;20191;-66
2022/03/30 08:41:45;;;;;;;21.05;11.15;;;;;;;;;;5025206;28;20178;-66
2022/03/30 08:44:14;;;;;;;25.92;11.02;;;;;;;;;;5023967;28;20236;-66
2022/03/30 08:46:40;;;;;;;20.52;9.73;;;;;;;;;;5023866;28;20178;-66
2022/03/30 08:49:05;;;;;;;22.40;9.85;;;;;;;;;;5024795;28;20279;-66
2022/03/30 08:51:32;;;;;;;23.13;9.75;;;;;;;;;;5024316;28;20293;-66
2022/03/30 08:53:57;;;;;;;21.27;9.88;;;;;;;;;;5024040;28;20186;-67
2022/03/30 08:56:24;;;;;;;18.42;8.77;;;;;;;;;;5025505;28;20264;-67
2022/03/30 08:58:53;;;;;;;20.55;8.63;;;;;;;;;;5021078;28;20209;-67
2022/03/30 09:01:23;;;;;;;17.88;8.80;;;;;;;;;;5019991;28;20566;-67
2022/03/30 09:03:59;;;;;;;17.65;8.70;;;;;;;;;;5021210;28;20194;-66
2022/03/30 09:06:48;;;;;;;20.50;9.23;;;;;;;;;;5022763;28;20458;-66
2022/03/30 09:09:15;;;;;;;20.55;9.00;;;;;;;;;;5025371;28;20200;-66
2022/03/30 09:11:41;;;;;;;19.40;8.55;;;;;;;;;;5019095;28;20578;-66
2022/03/30 09:14:09;;;;;;;15.73;8.10;;;;;;;;;;5021617;28;20190;-66
2022/03/30 09:16:47;;;;;;;14.50;7.97;;;;;;;;;;5024500;28;20281;-66
2022/03/30 09:19:15;;;;;;;16.35;8.20;;;;;;;;;;5016271;28;20186;-66
2022/03/30 09:21:46;;;;;;;15.85;7.30;;;;;;;;;;5017764;28;20182;-68
2022/03/30 09:24:13;;;;;;;14.45;6.55;;;;;;;;;;5026157;28;20229;-67
2022/03/30 09:26:38;;;;;;;14.07;7.65;;;;;;;;;;5025344;28;20273;-66
2022/03/30 09:29:05;;;;;;;16.90;7.43;;;;;;;;;;5015959;28;20637;-67
2022/03/30 09:31:31;;;;;;;16.15;7.25;;;;;;;;;;5021838;28;20225;-66
2022/03/30 09:34:01;;;;;;;13.55;7.10;;;;;;;;;;5021720;28;20458;-67
2022/03/30 09:36:29;;;;;;;13.23;6.95;;;;;;;;;;5024505;28;20194;-67
2022/03/30 09:38:54;;;;;;;11.88;6.03;;;;;;;;;;5021762;28;20361;-67
2022/03/30 09:41:20;;;;;;;24.90;7.40;;;;;;;;;;5020194;28;20277;-66
2022/03/30 09:43:45;;;;;;;15.90;6.72;;;;;;;;;;5023034;28;20197;-67
2022/03/30 09:46:12;;;;;;;16.10;6.97;;;;;;;;;;5024303;28;20692;-67
2022/03/30 09:48:44;;;;;;;11.43;6.38;;;;;;;;;;5024244;28;20207;-66
2022/03/30 09:51:09;;;;;;;13.30;7.05;;;;;;;;;;5024316;28;20201;-66
2022/03/30 09:53:36;;;;;;;6.93;3.75;;;;;;;;;;5020736;28;20186;-67
2022/03/30 09:56:08;;;;;;;5.35;3.13;;;;;;;;;;5022017;28;20292;-67
2022/03/30 09:58:36;;;;;;;4.63;2.28;;;;;;;;;;5025613;28;20178;-67
2022/03/30 10:01:11;;;;;;;2.88;1.67;;;;;;;;;;5023579;28;20186;-66
2022/03/30 10:03:45;;;;;;;3.08;1.30;;;;;;;;;;5011323;28;20186;-67
2022/03/30 10:06:13;;;;;;;1.95;1.42;;;;;;;;;;5022842;28;20284;-66
2022/03/30 10:08:43;;;;;;;1.88;1.13;;;;;;;;;;5017750;28;20229;-66
2022/03/30 10:11:10;;;;;;;2.95;1.50;;;;;;;;;;5018337;28;20655;-66
2022/03/30 10:13:37;;;;;;;1.77;1.42;;;;;;;;;;5024991;28;20711;-67
2022/03/30 10:16:06;;;;;;;3.28;1.10;;;;;;;;;;5017544;28;20590;-66
2022/03/30 10:18:32;;;;;;;1.90;1.60;;;;;;;;;;5014196;28;20282;-67
2022/03/30 10:21:26;;;;;;;2.95;0.95;;;;;;;;;;5018232;28;20217;-67
2022/03/30 10:24:10;;;;;;;1.95;1.02;;;;;;;;;;5009962;28;20233;-67
2022/03/30 10:26:51;;;;;;;2.78;0.90;;;;;;;;;;5016393;28;20193;-66
2022/03/30 10:29:18;;;;;;;1.77;0.80;;;;;;;;;;5021711;28;20212;-66
2022/03/30 10:32:14;;;;;;;1.50;1.10;;;;;;;;;;5025450;28;20328;-65
2022/03/30 10:35:02;;;;;;;1.52;0.80;;;;;;;;;;5022897;28;20182;-65
2022/03/30 10:37:36;;;;;;;1.90;1.10;;;;;;;;;;5022669;28;20310;-66
2022/03/30 10:40:05;;;;;;;1.30;1.20;;;;;;;;;;5024261;28;20268;-66
2022/03/30 10:42:49;;;;;;;1.63;1.48;;;;;;;;;;5022897;28;20843;-65
2022/03/30 10:45:24;;;;;;;1.52;1.20;;;;;;;;;;5024690;28;20680;-66
2022/03/30 10:48:04;;;;;;;1.25;1.08;;;;;;;;;;5016469;28;20190;-66
2022/03/30 10:50:34;;;;;;;0.65;0.63;;;;;;;;;;5023531;28;20200;-66
2022/03/30 10:52:59;;;;;;;0.68;0.68;;;;;;;;;;5023368;28;20206;-66
2022/03/30 10:55:25;;;;;;;2.40;0.70;;;;;;;;;;5022734;28;20209;-66
2022/03/30 10:57:53;;;;;;;1.50;1.00;;;;;;;;;;5024553;28;20936;-66
2022/03/30 11:00:33;;;;;;;1.90;1.10;;;;;;;;;;5023478;28;20217;-65
2022/03/30 11:03:26;;;;;;;1.20;1.10;;;;;;;;;;5025127;28;20340;-66
2022/03/30 11:06:00;;;;;;;1.05;0.95;;;;;;;;;;5024003;28;20283;-67
2022/03/30 11:08:31;;;;;;;2.15;0.80;;;;;;;;;;5023474;28;20197;-67
2022/03/30 11:11:00;;;;;;;2.75;1.30;;;;;;;;;;5008193;28;20222;-66
2022/03/30 11:13:26;;;;;;;1.10;0.90;;;;;;;;;;5022609;28;20174;-67
2022/03/30 11:16:00;;;;;;;0.88;0.80;;;;;;;;;;5024939;28;20244;-66
2022/03/30 11:18:27;;;;;;;2.15;0.93;;;;;;;;;;5024737;28;20287;-66
2022/03/30 11:21:08;;;;;;;2.05;0.65;;;;;;;;;;5008856;28;20677;-66
2022/03/30 11:23:34;;;;;;;0.65;0.60;;;;;;;;;;5021962;28;20642;-66
2022/03/30 11:25:59;;;;;;;0.82;0.63;;;;;;;;;;5026021;28;20189;-66
2022/03/30 11:28:40;;;;;;;0.75;0.70;;;;;;;;;;5026574;28;20227;-66
2022/03/30 11:31:22;;;;;;;1.05;0.80;;;;;;;;;;5028632;28;20296;-67
2022/03/30 11:34:22;;;;;;;1.83;0.60;;;;;;;;;;5020475;28;20276;-67
2022/03/30 11:36:47;;;;;;;2.40;0.80;;;;;;;;;;5025562;28;20210;-67
2022/03/30 11:39:14;;;;;;;1.17;0.65;;;;;;;;;;5024715;28;20181;-67
2022/03/30 11:41:40;;;;;;;0.70;0.40;;;;;;;;;;5029146;28;20190;-67
2022/03/30 11:46:51;;;;;;;0.95;0.55;;;;;;;;;;5026659;28;20180;-67
2022/03/30 11:49:17;;;;;;;0.52;0.43;;;;;;;;;;5027516;28;20350;-67
2022/03/30 11:51:42;;;;;;;1.00;0.65;;;;;;;;;;5028298;28;20335;-67
2022/03/30 11:54:19;;;;;;;2.42;0.90;;;;;;;;;;5026682;28;20178;-66
2022/03/30 11:56:45;;;;;;;0.80;0.60;;;;;;;;;;5020031;28;20206;-67
2022/03/30 11:59:11;;;;;;;0.57;0.57;;;;;;;;;;5027994;28;20664;-67
2022/03/30 12:01:37;;;;;;;1.80;0.65;;;;;;;;;;5028105;28;20190;-67
2022/03/30 12:04:03;;;;;;;1.05;0.50;;;;;;;;;;5025549;28;20186;-67
2022/03/30 12:06:28;;;;;;;0.85;0.65;;;;;;;;;;5028169;28;20229;-67
2022/03/30 12:08:54;;;;;;;1.85;0.70;;;;;;;;;;5028388;28;20245;-67
2022/03/30 12:11:21;;;;;;;0.88;0.60;;;;;;;;;;5023755;28;20517;-67
2022/03/30 12:13:54;;;;;;;2.47;0.90;;;;;;;;;;5025177;28;20201;-67
2022/03/30 12:16:21;;;;;;;1.95;0.80;;;;;;;;;;5026237;28;21451;-67
2022/03/30 12:18:58;;;;;;;2.45;0.73;;;;;;;;;;5026143;28;20257;-67
2022/03/30 12:21:27;;;;;;;1.70;0.75;;;;;;;;;;5027719;28;20212;-67
2022/03/30 12:24:00;;;;;;;3.63;1.10;;;;;;;;;;5026952;28;20181;-67
2022/03/30 12:26:26;;;;;;;4.70;1.10;;;;;;;;;;5024694;28;20217;-67
2022/03/30 12:29:19;;;;;;;1.60;0.80;;;;;;;;;;5022336;28;20215;-66
2022/03/30 12:31:53;;;;;;;2.13;0.98;;;;;;;;;;5023389;28;20602;-67
2022/03/30 12:34:20;;;;;;;2.35;0.90;;;;;;;;;;5026002;28;20189;-67
2022/03/30 12:36:48;;;;;;;2.08;0.77;;;;;;;;;;5023767;28;20574;-67
2022/03/30 12:39:40;;;;;;;1.63;0.77;;;;;;;;;;5026291;28;20589;-67
2022/03/30 12:42:17;;;;;;;1.08;0.63;;;;;;;;;;5023548;28;20553;-67
2022/03/30 12:44:58;;;;;;;2.50;0.80;;;;;;;;;;5021525;28;20177;-67
2022/03/30 12:47:35;;;;;;;3.22;0.80;;;;;;;;;;5019105;28;20189;-67
2022/03/30 12:50:12;;;;;;;0.70;0.70;;;;;;;;;;5014848;28;20193;-67
2022/03/30 12:52:45;;;;;;;0.70;0.70;;;;;;;;;;5023151;28;20259;-67
2022/03/30 12:55:34;;;;;;;2.60;0.90;;;;;;;;;;5026516;28;20597;-67
2022/03/30 12:57:59;;;;;;;2.08;1.08;;;;;;;;;;5014822;28;20194;-67
2022/03/30 13:00:39;;;;;;;1.38;1.00;;;;;;;;;;5017743;28;20186;-67
2022/03/30 13:03:29;;;;;;;3.78;0.93;;;;;;;;;;5023475;28;20193;-67
2022/03/30 13:06:04;;;;;;;8.55;4.15;;;;;;;;;;5015083;28;20222;-67
2022/03/30 13:08:29;;;;;;;5.35;2.70;;;;;;;;;;5025002;28;20190;-67
2022/03/30 13:10:57;;;;;;;2.65;0.70;;;;;;;;;;5023616;28;20664;-67
2022/03/30 13:13:26;;;;;;;1.27;0.70;;;;;;;;;;5026494;28;20182;-66
2022/03/30 13:16:09;;;;;;;2.83;1.08;;;;;;;;;;5023937;28;20256;-66
2022/03/30 13:18:36;;;;;;;3.42;1.27;;;;;;;;;;5023783;28;20190;-66
2022/03/30 13:21:07;;;;;;;0.75;0.60;;;;;;;;;;5023042;28;20248;-66
2022/03/30 13:23:50;;;;;;;1.77;0.70;;;;;;;;;;5024492;28;20831;-66
2022/03/30 13:26:35;;;;;;;2.88;0.90;;;;;;;;;;5024116;28;20201;-66
2022/03/30 13:29:02;;;;;;;3.55;0.68;;;;;;;;;;5025213;28;20186;-66
2022/03/30 13:31:28;;;;;;;2.08;0.90;;;;;;;;;;5014340;28;20198;-66
2022/03/30 13:33:56;;;;;;;1.15;0.70;;;;;;;;;;5017193;28;20194;-67
2022/03/30 13:36:22;;;;;;;1.05;0.90;;;;;;;;;;5025693;28;20208;-67
2022/03/30 13:38:50;;;;;;;2.17;0.60;;;;;;;;;;5025309;28;20317;-67
2022/03/30 13:41:16;;;;;;;2.67;0.70;;;;;;;;;;5023577;28;20214;-66
2022/03/30 13:43:45;;;;;;;2.00;1.10;;;;;;;;;;5025571;28;20190;-66
2022/03/30 13:46:11;;;;;;;2.15;0.70;;;;;;;;;;5016098;28;20179;-66
2022/03/30 13:48:37;;;;;;;1.10;0.80;;;;;;;;;;5018794;28;20197;-66
2022/03/30 13:51:03;;;;;;;1.50;0.70;;;;;;;;;;5021555;28;20192;-67
2022/03/30 13:53:33;;;;;;;3.72;1.17;;;;;;;;;;5025486;28;20201;-67
2022/03/30 13:55:59;;;;;;;2.45;0.60;;;;;;;;;;5024452;28;20593;-67
2022/03/30 13:58:26;;;;;;;4.43;0.77;;;;;;;;;;5026844;28;20334;-67
2022/03/30 14:00:52;;;;;;;1.13;0.63;;;;;;;;;;5021595;28;20821;-66
2022/03/30 14:03:18;;;;;;;1.73;0.90;;;;;;;;;;5022188;28;20186;-66
2022/03/30 14:05:44;;;;;;;4.20;1.13;;;;;;;;;;5017372;28;20220;-66
2022/03/30 14:08:10;;;;;;;1.85;1.08;;;;;;;;;;5023494;28;20216;-67
2022/03/30 14:10:35;;;;;;;2.78;1.00;;;;;;;;;;5023846;28;20637;-67
2022/03/30 14:13:02;;;;;;;1.55;0.70;;;;;;;;;;5021545;28;20205;-67
2022/03/30 14:15:28;;;;;;;1.52;0.80;;;;;;;;;;5025288;28;20190;-67
2022/03/30 14:17:54;;;;;;;2.08;0.90;;;;;;;;;;5026726;28;20665;-67
2022/03/30 14:20:19;;;;;;;0.85;0.70;;;;;;;;;;5024621;28;20188;-67
2022/03/30 14:22:47;;;;;;;2.30;1.23;;;;;;;;;;5024331;28;20181;-66
2022/03/30 14:25:14;;;;;;;2.40;0.75;;;;;;;;;;5014723;28;20189;-66
2022/03/30 14:27:40;;;;;;;3.50;0.82;;;;;;;;;;5024566;28;20533;-66
2022/03/30 14:30:07;;;;;;;2.08;1.10;;;;;;;;;;5019970;28;20186;-66
2022/03/30 14:32:33;;;;;;;2.47;1.15;;;;;;;;;;5020503;28;20186;-66
2022/03/30 14:34:58;;;;;;;2.90;0.90;;;;;;;;;;5026266;28;20625;-66
2022/03/30 14:37:25;;;;;;;1.67;0.93;;;;;;;;;;5020678;28;20215;-66
2022/03/30 14:39:50;;;;;;;2.30;1.48;;;;;;;;;;5015720;28;20267;-66
2022/03/30 14:42:16;;;;;;;1.25;0.80;;;;;;;;;;5022269;28;20209;-66